Huvudsida
METAR-TAF:

METAR-TAF

Flygplatser :

Ørsta-Volda flygplats. Hovden

Ørsta-Volda, Norge

latitud: 62-11N, longitud: 006-04E, höjd: 7 m

Aktuellt väderrapport

Denna rapport gjordes för 4 timmar och 6 minuter sedan, klockan 23:50 UTC
Vind 1 kt varierande vindriktning
Temperatur 2°C
Fuktighet 93%
Tryck 993 hPa
Sikt 10 km eller mer
Få moln på en höjd av 1600 ft
Spridda moln på en höjd av 2200 ft
Brutna moln på en höjd av 3600 ft
lätta regnskurar

METAR: ENOV 182350Z VRB01KT 9999 -SHRA FEW016 SCT022 BKN036 02/01 Q0993 RMK WIND 2175FT 21017KT

Tid: 04:56 (03:56 UTC)


TAF: saknas

Aktuella väderrapporter och prognoser från 4000 flygplatser (METAR- och TAF-rapporter).

De tillgängliga stationerna syns som gula och röda prickar på kartan.

För musen över prickarna för att se namnen på stationerna.

Klicka sedan för att få väderrapporter och prognoser.

För att ändra kartan: Klicka på de gröna knapparna med ett svart kors på för att zooma in; den gröna knappen med ett streck på för att zooma ut; eller på de gröna pilarna för angränsande kartor.


METAR-TAF: